createdAt,value
2022-12-26T00:01:39.316Z,98190.13
2022-12-26T00:04:49.158Z,98195.53
2022-12-26T00:06:56.807Z,98189.13
2022-12-26T00:09:25.183Z,98198.78
2022-12-26T00:11:53.650Z,98194.50
2022-12-26T00:14:21.984Z,98198.13
2022-12-26T00:16:52.365Z,98204.19
2022-12-26T00:19:20.677Z,98207.66
2022-12-26T00:21:49.019Z,98207.81
2022-12-26T00:24:17.322Z,98201.22
2022-12-26T00:26:45.649Z,98204.78
2022-12-26T00:29:14.198Z,98202.97
2022-12-26T00:31:42.544Z,98212.53
2022-12-26T00:34:12.705Z,98211.63
2022-12-26T00:36:41.030Z,98213.53
2022-12-26T00:39:13.858Z,98214.50
2022-12-26T00:41:42.186Z,98213.44
2022-12-26T00:44:10.641Z,98208.22
2022-12-26T00:46:38.969Z,98207.34
2022-12-26T00:49:07.276Z,98204.19
2022-12-26T00:51:36.906Z,98213.69
2022-12-26T00:54:05.570Z,98204.03
2022-12-26T00:56:33.816Z,98200.53
2022-12-26T00:59:02.202Z,98204.03
2022-12-26T01:01:31.496Z,98204.19
2022-12-26T01:04:00.030Z,98216.34
2022-12-26T01:06:28.473Z,98207.53
2022-12-26T01:08:59.635Z,98199.81
2022-12-26T01:11:43.785Z,98204.19
2022-12-26T01:14:15.541Z,98197.22
2022-12-26T01:16:46.900Z,98200.03
2022-12-26T01:19:15.532Z,98206.25
2022-12-26T01:21:44.002Z,98194.38
2022-12-26T01:24:14.076Z,98200.59
2022-12-26T01:26:42.295Z,98209.31
2022-12-26T01:29:10.798Z,98206.50
2022-12-26T01:31:39.285Z,98203.25
2022-12-26T01:34:07.711Z,98200.50
2022-12-26T01:36:35.971Z,98203.19
2022-12-26T01:39:04.728Z,98203.25
2022-12-26T01:41:34.566Z,98199.81
2022-12-26T01:44:06.607Z,98214.78
2022-12-26T01:46:40.754Z,98213.94
2022-12-26T01:49:16.234Z,98212.28
2022-12-26T01:51:50.118Z,98216.63
2022-12-26T01:54:38.613Z,98222.84
2022-12-26T01:57:13.722Z,98223.66
2022-12-26T01:59:42.871Z,98227.16
2022-12-26T02:02:12.156Z,98223.09
2022-12-26T02:05:03.511Z,98225.72
2022-12-26T02:07:34.351Z,98227.38
2022-12-26T02:10:03.909Z,98218.91
2022-12-26T02:12:38.749Z,98221.25
2022-12-26T02:15:13.095Z,98218.50
2022-12-26T02:17:42.882Z,98219.25
2022-12-26T02:20:20.754Z,98208.94
2022-12-26T02:23:49.320Z,98208.19
2022-12-26T02:27:04.077Z,98204.69
2022-12-26T02:30:06.732Z,98200.47
2022-12-26T02:33:20.718Z,98214.97
2022-12-26T02:36:34.526Z,98219.44
2022-12-26T02:39:44.372Z,98220.94
2022-12-26T02:42:30.540Z,98226.09
2022-12-26T02:45:25.265Z,98224.13
2022-12-26T02:48:02.633Z,98233.69
2022-12-26T02:50:59.754Z,98224.88
2022-12-26T02:53:55.838Z,98220.56
2022-12-26T02:56:47.145Z,98218.03
2022-12-26T02:59:55.926Z,98220.31
2022-12-26T03:02:49.311Z,98228.63
2022-12-26T03:05:45.214Z,98232.00
2022-12-26T03:08:38.102Z,98233.50
2022-12-26T03:11:24.278Z,98229.84
2022-12-26T03:13:54.431Z,98229.84
2022-12-26T03:16:41.947Z,98225.38
2022-12-26T03:19:13.524Z,98218.28
2022-12-26T03:21:46.630Z,98217.38
2022-12-26T03:24:18.334Z,98211.94
2022-12-26T03:26:51.979Z,98217.09
2022-12-26T03:29:40.383Z,98208.44
2022-12-26T03:32:11.526Z,98198.84
2022-12-26T03:34:44.476Z,98202.63
2022-12-26T03:37:49.677Z,98199.88
2022-12-26T03:41:11.464Z,98202.53
2022-12-26T03:44:28.269Z,98196.53
2022-12-26T03:47:27.900Z,98192.28
2022-12-26T03:50:21.636Z,98200.13
2022-12-26T03:53:17.535Z,98204.63
2022-12-26T03:56:14.234Z,98197.53
2022-12-26T03:59:06.743Z,98197.59
2022-12-26T04:01:55.953Z,98196.63
2022-12-26T04:04:44.357Z,98201.84
2022-12-26T04:07:34.583Z,98199.19
2022-12-26T04:10:28.300Z,98194.72
2022-12-26T04:13:16.579Z,98204.28
2022-12-26T04:16:06.756Z,98207.78
2022-12-26T04:19:06.726Z,98211.28
2022-12-26T04:22:00.869Z,98215.84
2022-12-26T04:24:52.444Z,98225.31
2022-12-26T04:27:41.699Z,98223.75
2022-12-26T04:30:28.886Z,98224.59
2022-12-26T04:33:20.042Z,98219.59
2022-12-26T04:36:11.144Z,98218.75
2022-12-26T04:39:00.695Z,98216.91
2022-12-26T04:41:49.013Z,98220.25
2022-12-26T04:44:23.087Z,98228.25
2022-12-26T04:46:53.719Z,98219.50
2022-12-26T04:49:39.970Z,98220.25
2022-12-26T04:52:11.773Z,98221.41
2022-12-26T04:54:40.349Z,98213.75
2022-12-26T04:57:09.262Z,98205.03
2022-12-26T04:59:38.846Z,98213.75
2022-12-26T05:02:25.033Z,98222.25
2022-12-26T05:05:10.986Z,98223.00
2022-12-26T05:07:56.911Z,98225.56
2022-12-26T05:10:27.961Z,98222.16
2022-12-26T05:12:56.800Z,98223.91
2022-12-26T05:15:26.712Z,98229.06
2022-12-26T05:18:12.628Z,98224.59
2022-12-26T05:20:59.145Z,98225.56
2022-12-26T05:23:46.993Z,98230.00
2022-12-26T05:26:36.934Z,98217.09
2022-12-26T05:29:05.755Z,98218.59
2022-12-26T05:31:36.897Z,98218.41
2022-12-26T05:34:07.700Z,98219.03
2022-12-26T05:36:39.732Z,98218.88
2022-12-26T05:39:09.395Z,98218.09
2022-12-26T05:41:38.863Z,98215.44
2022-12-26T05:44:07.579Z,98220.44
2022-12-26T05:46:38.236Z,98221.25
2022-12-26T05:49:07.202Z,98238.59
2022-12-26T05:51:36.426Z,98228.28
2022-12-26T05:54:05.720Z,98236.94
2022-12-26T05:56:35.045Z,98228.44
2022-12-26T05:59:03.673Z,98233.44
2022-12-26T06:01:32.314Z,98233.50
2022-12-26T06:04:02.955Z,98241.91
2022-12-26T06:06:31.320Z,98234.34
2022-12-26T06:08:59.789Z,98242.31
2022-12-26T06:11:28.423Z,98239.81
2022-12-26T06:13:57.409Z,98244.16
2022-12-26T06:16:25.987Z,98235.66
2022-12-26T06:18:56.333Z,98228.59
2022-12-26T06:21:26.313Z,98227.06
2022-12-26T06:23:54.873Z,98226.91
2022-12-26T06:26:23.421Z,98233.44
2022-12-26T06:28:52.408Z,98227.78
2022-12-26T06:31:23.759Z,98228.34
2022-12-26T06:33:55.850Z,98228.34
2022-12-26T06:36:27.568Z,98223.28
2022-12-26T06:38:56.842Z,98225.75
2022-12-26T06:41:26.178Z,98220.59
2022-12-26T06:43:55.826Z,98213.63
2022-12-26T06:46:26.931Z,98223.13
2022-12-26T06:48:55.928Z,98235.09
2022-12-26T06:51:28.482Z,98235.09
2022-12-26T06:53:56.891Z,98230.44
2022-12-26T06:56:27.568Z,98216.78
2022-12-26T06:58:56.620Z,98233.78
2022-12-26T07:01:26.526Z,98240.94
2022-12-26T07:03:56.241Z,98230.44
2022-12-26T07:06:32.705Z,98230.44
2022-12-26T07:09:03.940Z,98243.28
2022-12-26T07:11:37.122Z,98243.53
2022-12-26T07:14:06.587Z,98240.94
2022-12-26T07:16:35.997Z,98239.44
2022-12-26T07:19:05.414Z,98239.28
2022-12-26T07:21:40.455Z,98239.59
2022-12-26T07:24:15.636Z,98238.75
2022-12-26T07:26:44.356Z,98233.50
2022-12-26T07:29:14.177Z,98242.84
2022-12-26T07:31:43.552Z,98259.31
2022-12-26T07:34:11.914Z,98252.75
2022-12-26T07:36:41.920Z,98238.88
2022-12-26T07:39:10.384Z,98248.56
2022-12-26T07:41:56.423Z,98245.25
2022-12-26T07:44:24.949Z,98239.19
2022-12-26T07:46:53.281Z,98244.50
2022-12-26T07:49:21.619Z,98266.06
2022-12-26T07:51:52.309Z,98253.31
2022-12-26T07:54:20.840Z,98250.81
2022-12-26T07:56:49.083Z,98246.34
2022-12-26T07:59:19.224Z,98255.91
2022-12-26T08:01:47.912Z,98254.09
2022-12-26T08:04:16.674Z,98247.06
2022-12-26T08:06:47.487Z,98264.47
2022-12-26T08:09:18.197Z,98263.63
2022-12-26T08:11:47.191Z,98255.91
2022-12-26T08:14:17.260Z,98253.41
2022-12-26T08:16:51.341Z,98258.47
2022-12-26T08:19:21.620Z,98257.59
2022-12-26T08:21:49.972Z,98259.41
2022-12-26T08:24:20.886Z,98253.41
2022-12-26T08:26:49.232Z,98265.78
2022-12-26T08:29:18.021Z,98270.94
2022-12-26T08:31:46.425Z,98278.03
2022-12-26T08:34:14.785Z,98287.50
2022-12-26T08:36:43.047Z,98287.50
2022-12-26T08:39:11.735Z,98300.25
2022-12-26T08:41:41.439Z,98304.66
2022-12-26T08:44:28.054Z,98304.97
2022-12-26T08:46:56.869Z,98312.78
2022-12-26T08:49:25.561Z,98320.31
2022-12-26T08:51:54.065Z,98322.41
2022-12-26T08:54:23.169Z,98329.53
2022-12-26T08:56:52.918Z,98338.34
2022-12-26T08:59:21.425Z,98337.59
2022-12-26T09:01:49.772Z,98342.78
2022-12-26T09:04:18.382Z,98359.28
2022-12-26T09:06:47.161Z,98367.09
2022-12-26T09:09:15.505Z,98372.25
2022-12-26T09:11:44.186Z,98381.91
2022-12-26T09:14:14.547Z,98385.41
2022-12-26T09:16:50.524Z,98383.88
2022-12-26T09:19:20.913Z,98386.22
2022-12-26T09:22:12.056Z,98384.47
2022-12-26T09:24:40.691Z,98393.03
2022-12-26T09:27:10.854Z,98393.72
2022-12-26T09:29:40.723Z,98389.25
2022-12-26T09:32:09.682Z,98389.13
2022-12-26T09:34:38.304Z,98384.50
2022-12-26T09:37:06.653Z,98392.25
2022-12-26T09:39:35.199Z,98404.22
2022-12-26T09:42:18.050Z,98401.66
2022-12-26T09:44:59.847Z,98414.41
2022-12-26T09:47:34.122Z,98422.00
2022-12-26T09:50:08.663Z,98428.13
2022-12-26T09:52:43.590Z,98440.13
2022-12-26T09:55:28.478Z,98446.19
2022-12-26T09:58:01.757Z,98461.69
2022-12-26T10:00:39.541Z,98456.56
2022-12-26T10:03:10.534Z,98471.16
2022-12-26T10:06:01.276Z,98454.00
2022-12-26T10:08:50.658Z,98450.44
2022-12-26T10:11:33.584Z,98456.75
2022-12-26T10:14:11.718Z,98467.50
2022-12-26T10:16:52.886Z,98457.31
2022-12-26T10:19:47.632Z,98464.53
2022-12-26T10:22:35.439Z,98452.09
2022-12-26T10:25:09.677Z,98442.41
2022-12-26T10:27:42.450Z,98440.22
2022-12-26T10:30:20.464Z,98444.53
2022-12-26T10:32:56.650Z,98443.00
2022-12-26T10:35:32.552Z,98453.63
2022-12-26T10:38:07.128Z,98455.56
2022-12-26T10:40:40.614Z,98448.75
2022-12-26T10:43:23.864Z,98462.69
2022-12-26T10:46:06.815Z,98459.31
2022-12-26T10:48:36.846Z,98457.66
2022-12-26T10:51:05.908Z,98461.84
2022-12-26T10:53:34.997Z,98466.31
2022-12-26T10:56:04.117Z,98467.00
2022-12-26T10:58:36.035Z,98470.50
2022-12-26T11:01:34.194Z,98461.03
2022-12-26T11:04:06.872Z,98462.00
2022-12-26T11:06:39.459Z,98470.56
2022-12-26T11:09:24.849Z,98467.13
2022-12-26T11:11:54.433Z,98467.84
2022-12-26T11:14:42.249Z,98456.00
2022-12-26T11:17:15.391Z,98440.44
2022-12-26T11:19:45.678Z,98443.09
2022-12-26T11:22:25.878Z,98443.84
2022-12-26T11:25:18.860Z,98430.09
2022-12-26T11:27:50.655Z,98418.06
2022-12-26T11:30:27.400Z,98418.94
2022-12-26T11:33:22.922Z,98398.22
2022-12-26T11:35:59.551Z,98405.81
2022-12-26T11:38:44.878Z,98422.03
2022-12-26T11:41:32.696Z,98443.50
2022-12-26T11:44:13.001Z,98442.75
2022-12-26T11:46:47.904Z,98437.28
2022-12-26T11:49:22.678Z,98443.16
2022-12-26T11:51:58.876Z,98469.84
2022-12-26T11:54:48.763Z,98442.44
2022-12-26T11:57:22.361Z,98424.34
2022-12-26T11:59:52.777Z,98427.75
2022-12-26T12:02:28.666Z,98436.31
2022-12-26T12:05:03.746Z,98435.22
2022-12-26T12:07:48.362Z,98418.88
2022-12-26T12:11:03.923Z,98411.31
2022-12-26T12:14:01.451Z,98421.63
2022-12-26T12:16:45.365Z,98411.09
2022-12-26T12:19:29.823Z,98429.06
2022-12-26T12:22:28.134Z,98432.09
2022-12-26T12:25:22.177Z,98439.94
2022-12-26T12:28:00.872Z,98433.81
2022-12-26T12:30:41.260Z,98435.47
2022-12-26T12:33:26.642Z,98432.06
2022-12-26T12:36:07.878Z,98421.50
2022-12-26T12:38:54.891Z,98430.06
2022-12-26T12:42:00.740Z,98424.84
2022-12-26T12:44:43.337Z,98421.88
2022-12-26T12:47:25.193Z,98424.09
2022-12-26T12:50:04.836Z,98425.94
2022-12-26T12:52:46.197Z,98415.16
2022-12-26T12:56:07.670Z,98418.56
2022-12-26T12:58:46.386Z,98428.78
2022-12-26T13:01:22.939Z,98426.16
2022-12-26T13:03:56.408Z,98416.03
2022-12-26T13:06:30.754Z,98421.50
2022-12-26T13:09:04.381Z,98425.69
2022-12-26T13:11:39.873Z,98422.88
2022-12-26T13:14:17.603Z,98420.09
2022-12-26T13:16:53.392Z,98421.19
2022-12-26T13:19:26.370Z,98422.25
2022-12-26T13:21:59.511Z,98421.19
2022-12-26T13:24:34.297Z,98403.38
2022-12-26T13:27:08.153Z,98412.84
2022-12-26T13:29:41.013Z,98411.06
2022-12-26T13:32:22.107Z,98391.63
2022-12-26T13:34:52.223Z,98391.63
2022-12-26T13:37:57.677Z,98375.75
2022-12-26T13:40:31.053Z,98391.16
2022-12-26T13:43:22.193Z,98387.66
2022-12-26T13:45:57.225Z,98394.41
2022-12-26T13:49:02.808Z,98396.03
2022-12-26T13:52:07.863Z,98399.44
2022-12-26T13:55:17.787Z,98397.84
2022-12-26T13:57:47.695Z,98391.94
2022-12-26T14:00:26.300Z,98412.44
2022-12-26T14:03:43.182Z,98411.75
2022-12-26T14:06:45.873Z,98405.72
2022-12-26T14:09:38.618Z,98394.66
2022-12-26T14:12:31.141Z,98396.31
2022-12-26T14:15:28.301Z,98380.00
2022-12-26T14:18:13.202Z,98386.09
2022-12-26T14:20:47.750Z,98388.72
2022-12-26T14:23:41.623Z,98393.88
2022-12-26T14:26:31.332Z,98401.00
2022-12-26T14:29:12.932Z,98388.81
2022-12-26T14:31:52.217Z,98385.53
2022-12-26T14:34:35.733Z,98385.00
2022-12-26T14:37:16.577Z,98383.03
2022-12-26T14:40:16.938Z,98378.84
2022-12-26T14:43:27.206Z,98386.50
2022-12-26T14:45:57.601Z,98378.84
2022-12-26T14:48:49.615Z,98391.84
2022-12-26T14:51:41.448Z,98399.50
2022-12-26T14:54:37.556Z,98382.50
2022-12-26T14:57:52.218Z,98374.75
2022-12-26T15:00:38.265Z,98379.16
2022-12-26T15:03:44.836Z,98373.84
2022-12-26T15:07:20.339Z,98366.09
2022-12-26T15:10:43.203Z,98374.53
2022-12-26T15:13:44.424Z,98380.06
2022-12-26T15:16:37.821Z,98372.19
2022-12-26T15:20:07.499Z,98369.59
2022-12-26T15:23:43.137Z,98360.50
2022-12-26T15:26:51.811Z,98360.63
2022-12-26T15:29:53.634Z,98364.81
2022-12-26T15:32:30.769Z,98370.06
2022-12-26T15:35:10.986Z,98381.13
2022-12-26T15:37:57.344Z,98391.75
2022-12-26T15:40:29.691Z,98384.06
2022-12-26T15:43:27.097Z,98382.94
2022-12-26T15:46:09.078Z,98388.16
2022-12-26T15:48:55.671Z,98384.75
2022-12-26T15:51:40.676Z,98401.06
2022-12-26T15:54:26.406Z,98378.00
2022-12-26T15:57:14.999Z,98373.75
2022-12-26T16:00:08.958Z,98372.78
2022-12-26T16:02:57.723Z,98376.28
2022-12-26T16:05:59.381Z,98377.16
2022-12-26T16:08:56.479Z,98380.44
2022-12-26T16:11:31.863Z,98382.31
2022-12-26T16:14:03.662Z,98384.91
2022-12-26T16:16:37.159Z,98389.44
2022-12-26T16:19:19.596Z,98394.59
2022-12-26T16:22:09.554Z,98387.69
2022-12-26T16:24:39.902Z,98393.69
2022-12-26T16:27:16.169Z,98388.66
2022-12-26T16:29:49.483Z,98393.63
2022-12-26T16:32:22.857Z,98394.81
2022-12-26T16:34:51.602Z,98393.16
2022-12-26T16:37:23.652Z,98409.59
2022-12-26T16:40:17.924Z,98407.03
2022-12-26T16:42:59.136Z,98406.09
2022-12-26T16:45:29.232Z,98408.53
2022-12-26T16:47:58.357Z,98399.16
2022-12-26T16:50:29.687Z,98397.31
2022-12-26T16:53:12.844Z,98393.91
2022-12-26T16:55:45.658Z,98404.13
2022-12-26T16:58:25.954Z,98412.50
2022-12-26T17:01:04.899Z,98402.94
2022-12-26T17:03:42.234Z,98413.03
2022-12-26T17:06:17.595Z,98418.63
2022-12-26T17:08:50.350Z,98399.75
2022-12-26T17:11:19.673Z,98401.56
2022-12-26T17:13:55.239Z,98404.31
2022-12-26T17:16:26.977Z,98397.53
2022-12-26T17:18:56.655Z,98400.94
2022-12-26T17:21:30.124Z,98410.50
2022-12-26T17:24:27.515Z,98411.34
2022-12-26T17:27:13.615Z,98422.63
2022-12-26T17:30:20.928Z,98432.94
2022-12-26T17:32:49.763Z,98436.56
2022-12-26T17:35:23.494Z,98451.13
2022-12-26T17:37:56.968Z,98440.97
2022-12-26T17:40:31.682Z,98443.59
2022-12-26T17:43:08.031Z,98442.91
2022-12-26T17:45:46.233Z,98436.91
2022-12-26T17:48:15.421Z,98444.66
2022-12-26T17:50:47.420Z,98456.47
2022-12-26T17:53:27.346Z,98463.13
2022-12-26T17:55:57.445Z,98476.06
2022-12-26T17:58:25.928Z,98486.97
2022-12-26T18:00:56.126Z,98486.31
2022-12-26T18:03:24.686Z,98455.16
2022-12-26T18:05:56.576Z,98472.41
2022-12-26T18:08:32.588Z,98482.19
2022-12-26T18:11:03.139Z,98483.28
2022-12-26T18:13:32.044Z,98473.06
2022-12-26T18:16:03.127Z,98486.16
2022-12-26T18:18:36.559Z,98490.50
2022-12-26T18:21:07.604Z,98494.34
2022-12-26T18:23:37.075Z,98495.38
2022-12-26T18:26:09.103Z,98503.31
2022-12-26T18:28:37.708Z,98496.63
2022-12-26T18:31:07.442Z,98510.38
2022-12-26T18:33:35.766Z,98518.28
2022-12-26T18:36:07.790Z,98543.59
2022-12-26T18:38:36.319Z,98544.69
2022-12-26T18:41:04.745Z,98530.47
2022-12-26T18:43:33.199Z,98521.94
2022-12-26T18:46:01.742Z,98505.66
2022-12-26T18:48:31.544Z,98517.63
2022-12-26T18:51:00.047Z,98515.41
2022-12-26T18:53:28.449Z,98543.75
2022-12-26T18:55:56.793Z,98519.34
2022-12-26T18:58:25.056Z,98529.53
2022-12-26T19:00:53.583Z,98545.91
2022-12-26T19:03:22.097Z,98539.09
2022-12-26T19:05:51.775Z,98573.69
2022-12-26T19:08:20.095Z,98576.25
2022-12-26T19:10:48.424Z,98564.31
2022-12-26T19:13:16.759Z,98574.59
2022-12-26T19:15:47.542Z,98590.41
2022-12-26T19:18:15.883Z,98585.38
2022-12-26T19:20:45.966Z,98587.41
2022-12-26T19:23:15.798Z,98592.66
2022-12-26T19:25:44.149Z,98589.22
2022-12-26T19:28:12.585Z,98594.94
2022-12-26T19:30:40.909Z,98600.03
2022-12-26T19:33:09.533Z,98620.34
2022-12-26T19:35:37.852Z,98619.72
2022-12-26T19:38:06.177Z,98614.41
2022-12-26T19:40:35.877Z,98635.50
2022-12-26T19:43:04.357Z,98629.53
2022-12-26T19:45:32.721Z,98639.00
2022-12-26T19:48:01.133Z,98634.06
2022-12-26T19:50:29.549Z,98671.16
2022-12-26T19:52:57.957Z,98663.50
2022-12-26T19:55:26.193Z,98666.03
2022-12-26T19:57:55.852Z,98672.16
2022-12-26T20:00:24.264Z,98681.63
2022-12-26T20:02:52.593Z,98696.16
2022-12-26T20:05:20.935Z,98712.59
2022-12-26T20:07:49.209Z,98702.31
2022-12-26T20:10:17.637Z,98695.44
2022-12-26T20:12:46.069Z,98716.25
2022-12-26T20:15:15.941Z,98723.25
2022-12-26T20:17:44.302Z,98735.13
2022-12-26T20:20:12.871Z,98734.28
2022-12-26T20:22:41.172Z,98726.72
2022-12-26T20:25:10.495Z,98744.06
2022-12-26T20:27:40.659Z,98749.94
2022-12-26T20:30:10.458Z,98751.78
2022-12-26T20:32:43.992Z,98751.06
2022-12-26T20:35:12.266Z,98759.66
2022-12-26T20:37:40.611Z,98759.78
2022-12-26T20:40:10.547Z,98770.06
2022-12-26T20:42:39.163Z,98775.84
2022-12-26T20:45:09.102Z,98813.66
2022-12-26T20:47:38.847Z,98778.63
2022-12-26T20:50:08.816Z,98778.59
2022-12-26T20:52:37.181Z,98786.22
2022-12-26T20:55:06.251Z,98790.53
2022-12-26T20:57:34.605Z,98807.69
2022-12-26T21:00:02.987Z,98802.41
2022-12-26T21:02:33.033Z,98809.63
2022-12-26T21:05:03.112Z,98810.88
2022-12-26T21:07:33.633Z,98818.56
2022-12-26T21:10:01.919Z,98821.88
2022-12-26T21:12:32.054Z,98826.94
2022-12-26T21:15:00.407Z,98836.38
2022-12-26T21:17:28.815Z,98858.94
2022-12-26T21:19:57.229Z,98834.84
2022-12-26T21:22:26.906Z,98855.47
2022-12-26T21:24:55.386Z,98857.13
2022-12-26T21:27:23.654Z,98859.72
2022-12-26T21:29:51.949Z,98856.31
2022-12-26T21:32:20.270Z,98856.41
2022-12-26T21:34:48.681Z,98858.22
2022-12-26T21:37:34.851Z,98864.50
2022-12-26T21:40:05.889Z,98871.28
2022-12-26T21:42:34.285Z,98857.38
2022-12-26T21:45:02.671Z,98871.88
2022-12-26T21:47:30.957Z,98875.34
2022-12-26T21:49:59.237Z,98888.19
2022-12-26T21:52:27.487Z,98899.41
2022-12-26T21:55:13.618Z,98893.50
2022-12-26T21:57:43.368Z,98899.50
2022-12-26T22:00:14.575Z,98904.72
2022-12-26T22:03:00.678Z,98915.00
2022-12-26T22:05:31.323Z,98919.44
2022-12-26T22:08:01.850Z,98923.88
2022-12-26T22:10:58.538Z,98920.72
2022-12-26T22:13:28.436Z,98923.31
2022-12-26T22:16:07.447Z,98923.44
2022-12-26T22:18:39.887Z,98937.97
2022-12-26T22:21:12.045Z,98938.25
2022-12-26T22:23:41.668Z,98947.63
2022-12-26T22:26:12.269Z,98946.78
2022-12-26T22:28:42.745Z,98933.88
2022-12-26T22:31:20.044Z,98949.44
2022-12-26T22:33:48.469Z,98965.78
2022-12-26T22:36:16.775Z,98965.81
2022-12-26T22:38:45.149Z,98974.47
2022-12-26T22:41:13.542Z,98981.34
2022-12-26T22:43:44.227Z,98984.81
2022-12-26T22:46:13.221Z,98982.25
2022-12-26T22:48:41.911Z,98978.09
2022-12-26T22:51:17.306Z,98977.25
2022-12-26T22:53:45.677Z,98982.41
2022-12-26T22:56:14.749Z,98983.34
2022-12-26T22:58:44.352Z,98983.28
2022-12-26T23:01:14.603Z,98990.09
2022-12-26T23:03:43.077Z,98990.03
2022-12-26T23:06:20.903Z,98995.44
2022-12-26T23:08:50.471Z,99004.00
2022-12-26T23:11:19.358Z,99002.22
2022-12-26T23:13:50.591Z,98993.97
2022-12-26T23:16:27.122Z,99004.00
2022-12-26T23:19:16.875Z,99022.06
2022-12-26T23:21:50.447Z,99009.38
2022-12-26T23:24:22.033Z,99007.50
2022-12-26T23:26:53.028Z,99010.41
2022-12-26T23:29:42.820Z,99036.16
2022-12-26T23:32:12.205Z,99031.84
2022-12-26T23:34:40.729Z,99029.34
2022-12-26T23:37:09.211Z,99030.19
2022-12-26T23:39:37.576Z,99040.50
2022-12-26T23:42:06.129Z,99051.72
2022-12-26T23:44:35.978Z,99041.59
2022-12-26T23:47:04.560Z,99058.84
2022-12-26T23:49:33.076Z,99072.56
2022-12-26T23:52:01.938Z,99066.66
2022-12-26T23:54:30.284Z,99071.84
2022-12-26T23:56:58.740Z,99059.09
2022-12-26T23:59:27.255Z,99068.56
